createdAt,value
2022-10-23T00:01:55.433Z,7.00
2022-10-23T00:04:22.746Z,5.60
2022-10-23T00:06:49.257Z,6.18
2022-10-23T00:09:17.516Z,6.03
2022-10-23T00:11:47.401Z,6.20
2022-10-23T00:14:14.501Z,6.60
2022-10-23T00:16:40.842Z,6.07
2022-10-23T00:19:07.336Z,6.25
2022-10-23T00:21:33.741Z,6.50
2022-10-23T00:24:00.177Z,5.93
2022-10-23T00:26:26.618Z,5.78
2022-10-23T00:28:53.695Z,5.70
2022-10-23T00:31:21.621Z,5.50
2022-10-23T00:33:48.447Z,5.20
2022-10-23T00:36:16.072Z,5.28
2022-10-23T00:38:43.491Z,6.05
2022-10-23T00:41:13.966Z,6.03
2022-10-23T00:43:58.656Z,5.97
2022-10-23T00:46:25.490Z,5.35
2022-10-23T00:48:51.941Z,5.78
2022-10-23T00:51:18.367Z,5.18
2022-10-23T00:53:47.980Z,6.18
2022-10-23T00:56:16.721Z,6.40
2022-10-23T00:58:43.136Z,5.88
2022-10-23T01:01:17.641Z,6.40
2022-10-23T01:03:44.174Z,6.50
2022-10-23T01:06:19.713Z,6.10
2022-10-23T01:08:54.347Z,6.00
2022-10-23T01:14:05.825Z,5.35
2022-10-23T01:16:56.262Z,5.45
2022-10-23T01:19:42.772Z,5.85
2022-10-23T01:22:27.842Z,5.20
2022-10-23T01:24:59.461Z,5.80
2022-10-23T01:27:39.469Z,5.97
2022-10-23T01:30:08.068Z,5.70
2022-10-23T01:32:47.984Z,6.47
2022-10-23T01:35:24.109Z,6.20
2022-10-23T01:38:06.192Z,6.40
2022-10-23T01:40:48.665Z,5.97
2022-10-23T01:43:20.196Z,6.70
2022-10-23T01:45:50.739Z,6.85
2022-10-23T01:50:45.897Z,6.65
2022-10-23T01:53:12.437Z,6.70
2022-10-23T01:55:39.889Z,6.80
2022-10-23T01:58:10.255Z,6.38
2022-10-23T02:00:40.542Z,6.13
2022-10-23T02:03:08.870Z,6.93
2022-10-23T02:05:35.638Z,6.18
2022-10-23T02:08:04.085Z,7.00
2022-10-23T02:10:56.908Z,6.57
2022-10-23T02:16:08.024Z,5.97
2022-10-23T02:18:37.893Z,5.97
2022-10-23T02:21:07.633Z,7.28
2022-10-23T02:23:43.740Z,6.10
2022-10-23T02:26:18.572Z,6.05
2022-10-23T02:28:57.493Z,6.03
2022-10-23T02:31:23.949Z,6.13
2022-10-23T02:33:50.501Z,5.28
2022-10-23T02:36:18.317Z,6.30
2022-10-23T02:38:45.284Z,6.38
2022-10-23T02:41:19.122Z,6.10
2022-10-23T02:44:01.737Z,6.07
2022-10-23T02:46:39.937Z,6.30
2022-10-23T02:49:16.506Z,5.78
2022-10-23T02:52:02.349Z,6.82
2022-10-23T02:54:41.316Z,6.35
2022-10-23T02:57:18.966Z,6.43
2022-10-23T02:59:54.470Z,5.07
2022-10-23T03:02:22.951Z,5.60
2022-10-23T03:04:50.092Z,6.40
2022-10-23T03:07:18.632Z,6.07
2022-10-23T03:09:45.129Z,5.93
2022-10-23T03:12:13.133Z,5.97
2022-10-23T03:14:39.445Z,6.22
2022-10-23T03:17:05.810Z,5.45
2022-10-23T03:19:32.168Z,5.35
2022-10-23T03:21:58.818Z,5.85
2022-10-23T03:24:25.276Z,5.78
2022-10-23T03:26:51.926Z,6.20
2022-10-23T03:29:19.890Z,5.55
2022-10-23T03:31:46.248Z,5.38
2022-10-23T03:34:14.890Z,5.70
2022-10-23T03:36:41.480Z,5.40
2022-10-23T03:39:09.460Z,4.10
2022-10-23T03:41:35.829Z,5.13
2022-10-23T03:44:02.470Z,4.97
2022-10-23T03:46:28.925Z,5.30
2022-10-23T03:48:59.393Z,4.65
2022-10-23T03:51:26.193Z,5.75
2022-10-23T03:53:52.522Z,5.30
2022-10-23T03:56:18.892Z,5.15
2022-10-23T03:58:45.409Z,5.32
2022-10-23T04:01:13.249Z,5.88
2022-10-23T04:03:39.597Z,4.80
2022-10-23T04:06:06.149Z,5.00
2022-10-23T04:08:32.492Z,4.88
2022-10-23T04:10:58.924Z,4.75
2022-10-23T04:13:41.428Z,4.60
2022-10-23T04:16:07.769Z,4.43
2022-10-23T04:18:34.093Z,5.18
2022-10-23T04:21:00.475Z,5.55
2022-10-23T04:23:26.853Z,5.35
2022-10-23T04:25:55.925Z,5.10
2022-10-23T04:28:23.922Z,5.45
2022-10-23T04:30:50.379Z,4.28
2022-10-23T04:33:17.044Z,5.43
2022-10-23T04:35:43.679Z,4.80
2022-10-23T04:38:10.829Z,5.10
2022-10-23T04:40:37.482Z,4.18
2022-10-23T04:43:04.958Z,5.43
2022-10-23T04:45:35.576Z,4.38
2022-10-23T04:48:01.916Z,4.95
2022-10-23T04:50:35.345Z,4.93
2022-10-23T04:53:28.364Z,5.22
2022-10-23T04:56:13.308Z,4.47
2022-10-23T04:58:49.933Z,4.82
2022-10-23T05:01:16.602Z,4.65
2022-10-23T05:03:44.059Z,4.78
2022-10-23T05:06:10.487Z,5.10
2022-10-23T05:08:42.464Z,4.90
2022-10-23T05:11:29.046Z,4.78
2022-10-23T05:13:55.556Z,5.22
2022-10-23T05:16:37.339Z,4.93
2022-10-23T05:19:04.722Z,5.20
2022-10-23T05:21:34.234Z,5.30
2022-10-23T05:26:31.118Z,4.93
2022-10-23T05:29:01.692Z,5.07
2022-10-23T05:31:28.256Z,5.03
2022-10-23T05:34:01.543Z,4.78
2022-10-23T05:36:29.097Z,4.63
2022-10-23T05:38:57.130Z,5.45
2022-10-23T05:41:23.568Z,5.15
2022-10-23T05:43:49.960Z,5.30
2022-10-23T05:46:51.543Z,5.50
2022-10-23T05:49:39.593Z,5.22
2022-10-23T05:52:21.041Z,5.65
2022-10-23T05:55:07.446Z,5.75
2022-10-23T05:57:47.141Z,5.35
2022-10-23T06:00:17.252Z,5.00
2022-10-23T06:02:50.813Z,4.80
2022-10-23T06:05:34.491Z,4.68
2022-10-23T06:08:21.589Z,4.63
2022-10-23T06:10:50.112Z,5.13
2022-10-23T06:13:16.453Z,5.00
2022-10-23T06:15:42.808Z,5.47
2022-10-23T06:18:14.621Z,5.63
2022-10-23T06:20:52.437Z,5.35
2022-10-23T06:23:24.464Z,4.40
2022-10-23T06:26:13.269Z,5.60
2022-10-23T06:28:56.748Z,4.60
2022-10-23T06:31:27.781Z,4.57
2022-10-23T06:33:56.775Z,4.22
2022-10-23T06:36:23.702Z,4.63
2022-10-23T06:38:52.261Z,4.38
2022-10-23T06:41:21.901Z,4.50
2022-10-23T06:43:53.854Z,4.47
2022-10-23T06:46:26.724Z,4.50
2022-10-23T06:49:11.473Z,4.88
2022-10-23T06:51:45.216Z,4.43
2022-10-23T06:54:13.412Z,3.90
2022-10-23T06:56:59.788Z,4.10
2022-10-23T06:59:35.268Z,3.65
2022-10-23T07:02:02.954Z,4.15
2022-10-23T07:04:29.412Z,4.63
2022-10-23T07:06:57.480Z,4.28
2022-10-23T07:09:29.788Z,4.00
2022-10-23T07:11:56.363Z,3.50
2022-10-23T07:14:39.148Z,3.65
2022-10-23T07:17:06.221Z,4.10
2022-10-23T07:19:32.784Z,4.18
2022-10-23T07:22:13.407Z,3.60
2022-10-23T07:24:53.880Z,3.92
2022-10-23T07:27:26.236Z,4.00
2022-10-23T07:29:56.081Z,3.47
2022-10-23T07:32:24.314Z,3.47
2022-10-23T07:35:19.969Z,4.05
2022-10-23T07:37:54.553Z,3.97
2022-10-23T07:40:21.770Z,4.07
2022-10-23T07:42:50.313Z,3.58
2022-10-23T07:45:18.107Z,3.67
2022-10-23T07:47:49.778Z,4.03
2022-10-23T07:50:17.589Z,3.70
2022-10-23T07:52:44.398Z,3.72
2022-10-23T07:55:12.797Z,4.22
2022-10-23T07:57:46.070Z,3.42
2022-10-23T08:00:31.876Z,3.58
2022-10-23T08:03:12.654Z,3.78
2022-10-23T08:05:39.156Z,3.13
2022-10-23T08:08:05.582Z,3.25
2022-10-23T08:10:32.153Z,3.08
2022-10-23T08:12:59.521Z,3.38
2022-10-23T08:15:47.050Z,3.50
2022-10-23T08:18:33.404Z,3.20
2022-10-23T08:21:01.320Z,2.97
2022-10-23T08:23:27.864Z,3.17
2022-10-23T08:26:01.050Z,3.22
2022-10-23T08:28:30.099Z,3.80
2022-10-23T08:30:58.664Z,3.47
2022-10-23T08:33:25.681Z,3.30
2022-10-23T08:35:52.684Z,3.60
2022-10-23T08:38:27.857Z,3.03
2022-10-23T08:40:54.436Z,3.00
2022-10-23T08:43:41.505Z,2.70
2022-10-23T08:46:23.977Z,2.65
2022-10-23T08:49:25.309Z,2.80
2022-10-23T08:52:00.090Z,2.50
2022-10-23T08:54:38.533Z,2.83
2022-10-23T08:57:10.445Z,2.67
2022-10-23T08:59:40.444Z,3.15
2022-10-23T09:02:26.478Z,2.92
2022-10-23T09:04:54.165Z,3.10
2022-10-23T09:07:34.047Z,2.55
2022-10-23T09:10:06.565Z,3.20
2022-10-23T09:12:32.928Z,2.45
2022-10-23T09:15:05.446Z,2.95
2022-10-23T09:17:32.956Z,2.78
2022-10-23T09:20:04.949Z,2.60
2022-10-23T09:22:31.289Z,2.90
2022-10-23T09:24:57.625Z,2.42
2022-10-23T09:27:23.962Z,2.95
2022-10-23T09:29:51.835Z,2.70
2022-10-23T09:32:18.594Z,2.90
2022-10-23T09:34:53.229Z,2.40
2022-10-23T09:37:24.336Z,2.65
2022-10-23T09:40:01.464Z,3.08
2022-10-23T09:42:27.861Z,2.35
2022-10-23T09:44:54.807Z,2.33
2022-10-23T09:47:23.966Z,2.47
2022-10-23T09:49:51.664Z,2.63
2022-10-23T09:52:19.816Z,2.90
2022-10-23T09:54:51.369Z,2.65
2022-10-23T09:57:17.671Z,2.58
2022-10-23T09:59:44.136Z,2.20
2022-10-23T10:02:22.806Z,2.40
2022-10-23T10:05:21.039Z,2.60
2022-10-23T10:07:59.331Z,2.20
2022-10-23T10:10:28.733Z,3.05
2022-10-23T10:12:59.358Z,2.38
2022-10-23T10:15:28.777Z,2.40
2022-10-23T10:18:17.515Z,2.53
2022-10-23T10:20:59.297Z,1.77
2022-10-23T10:23:34.765Z,2.40
2022-10-23T10:26:20.431Z,2.50
2022-10-23T10:28:52.590Z,2.53
2022-10-23T10:31:23.310Z,2.40
2022-10-23T10:33:52.653Z,2.10
2022-10-23T10:36:18.976Z,2.20
2022-10-23T10:38:49.024Z,2.47
2022-10-23T10:41:26.598Z,2.38
2022-10-23T10:43:58.906Z,2.22
2022-10-23T10:46:28.442Z,2.38
2022-10-23T10:49:13.008Z,1.98
2022-10-23T10:52:02.074Z,2.13
2022-10-23T10:54:36.289Z,2.35
2022-10-23T10:57:05.109Z,2.10
2022-10-23T10:59:34.757Z,2.40
2022-10-23T11:02:18.458Z,2.20
2022-10-23T11:04:51.753Z,2.10
2022-10-23T11:07:23.698Z,1.63
2022-10-23T11:09:50.090Z,2.00
2022-10-23T11:12:18.349Z,2.17
2022-10-23T11:14:44.955Z,2.38
2022-10-23T11:17:16.871Z,1.90
2022-10-23T11:19:54.756Z,2.67
2022-10-23T11:22:26.027Z,1.90
2022-10-23T11:25:07.204Z,2.35
2022-10-23T11:27:56.538Z,2.30
2022-10-23T11:30:29.464Z,2.10
2022-10-23T11:33:14.725Z,1.90
2022-10-23T11:36:00.587Z,2.15
2022-10-23T11:38:31.950Z,2.20
2022-10-23T11:41:05.537Z,1.92
2022-10-23T11:43:46.559Z,2.08
2022-10-23T11:46:33.164Z,2.60
2022-10-23T11:49:02.374Z,2.22
2022-10-23T11:51:30.496Z,2.28
2022-10-23T11:54:13.413Z,1.88
2022-10-23T11:56:54.737Z,2.03
2022-10-23T11:59:39.861Z,1.70
2022-10-23T12:02:21.430Z,2.22
2022-10-23T12:04:49.926Z,2.42
2022-10-23T12:07:33.181Z,2.05
2022-10-23T12:10:04.500Z,1.92
2022-10-23T12:12:33.908Z,1.83
2022-10-23T12:15:15.906Z,1.70
2022-10-23T12:17:43.241Z,1.87
2022-10-23T12:20:12.796Z,2.15
2022-10-23T12:22:50.208Z,1.60
2022-10-23T12:25:19.608Z,1.90
2022-10-23T12:27:58.480Z,1.83
2022-10-23T12:30:28.846Z,2.28
2022-10-23T12:33:14.055Z,1.92
2022-10-23T12:36:03.373Z,1.80
2022-10-23T12:38:33.931Z,1.95
2022-10-23T12:41:23.012Z,1.80
2022-10-23T12:43:55.181Z,1.98
2022-10-23T12:46:30.109Z,1.77
2022-10-23T12:48:57.285Z,1.90
2022-10-23T12:51:25.462Z,1.75
2022-10-23T12:53:51.761Z,1.85
2022-10-23T12:56:18.503Z,1.60
2022-10-23T12:58:47.746Z,2.08
2022-10-23T13:01:22.754Z,2.20
2022-10-23T13:03:49.450Z,1.95
2022-10-23T13:06:16.160Z,1.73
2022-10-23T13:08:44.337Z,1.90
2022-10-23T13:11:29.888Z,1.90
2022-10-23T13:13:59.855Z,1.90
2022-10-23T13:16:26.420Z,1.77
2022-10-23T13:18:54.292Z,1.77
2022-10-23T13:21:22.433Z,1.73
2022-10-23T13:23:49.500Z,2.10
2022-10-23T13:26:28.893Z,1.98
2022-10-23T13:28:55.466Z,1.67
2022-10-23T13:31:26.714Z,2.17
2022-10-23T13:34:00.054Z,1.90
2022-10-23T13:36:30.722Z,2.78
2022-10-23T13:38:59.781Z,2.20
2022-10-23T13:41:27.244Z,2.00
2022-10-23T13:43:53.860Z,2.25
2022-10-23T13:46:25.308Z,2.22
2022-10-23T13:48:52.052Z,2.33
2022-10-23T13:51:22.481Z,2.38
2022-10-23T13:53:49.284Z,2.10
2022-10-23T13:56:16.697Z,2.45
2022-10-23T13:58:43.099Z,1.98
2022-10-23T14:01:28.806Z,2.97
2022-10-23T14:03:56.504Z,2.67
2022-10-23T14:06:22.939Z,2.30
2022-10-23T14:08:49.337Z,2.30
2022-10-23T14:11:16.706Z,2.33
2022-10-23T14:13:43.551Z,2.13
2022-10-23T14:16:12.224Z,2.35
2022-10-23T14:18:38.553Z,1.92
2022-10-23T14:21:05.875Z,2.00
2022-10-23T14:23:32.293Z,2.00
2022-10-23T14:26:05.535Z,2.10
2022-10-23T14:28:32.350Z,2.05
2022-10-23T14:31:03.169Z,2.28
2022-10-23T14:33:29.517Z,2.00
2022-10-23T14:35:55.931Z,2.03
2022-10-23T14:38:22.287Z,1.92
2022-10-23T14:40:48.721Z,2.25
2022-10-23T14:43:15.077Z,1.92
2022-10-23T14:45:41.502Z,2.13
2022-10-23T14:48:09.909Z,2.45
2022-10-23T14:50:37.474Z,2.50
2022-10-23T14:53:03.876Z,2.67
2022-10-23T14:55:30.282Z,2.83
2022-10-23T14:57:57.042Z,3.00
2022-10-23T15:00:23.590Z,2.85
2022-10-23T15:02:50.009Z,2.30
2022-10-23T15:05:16.458Z,2.55
2022-10-23T15:07:43.812Z,2.80
2022-10-23T15:10:10.440Z,3.80
2022-10-23T15:12:37.867Z,3.75
2022-10-23T15:15:05.419Z,2.75
2022-10-23T15:17:33.844Z,4.32
2022-10-23T15:20:00.744Z,3.42
2022-10-23T15:22:27.425Z,2.90
2022-10-23T15:24:54.081Z,2.45
2022-10-23T15:27:20.533Z,2.42
2022-10-23T15:29:46.898Z,2.25
2022-10-23T15:32:13.388Z,2.65
2022-10-23T15:34:42.617Z,2.35
2022-10-23T15:37:09.816Z,2.10
2022-10-23T15:39:36.232Z,2.17
2022-10-23T15:42:04.193Z,2.70
2022-10-23T15:44:31.705Z,2.45
2022-10-23T15:46:58.321Z,2.78
2022-10-23T15:49:25.416Z,5.93
2022-10-23T15:51:52.224Z,5.20
2022-10-23T15:54:20.149Z,7.55
2022-10-23T15:56:47.451Z,12.25
2022-10-23T15:59:14.488Z,5.20
2022-10-23T16:01:40.986Z,3.20
2022-10-23T16:04:07.566Z,2.38
2022-10-23T16:06:34.206Z,2.65
2022-10-23T16:09:00.612Z,3.00
2022-10-23T16:11:31.551Z,2.50
2022-10-23T16:13:58.745Z,2.33
2022-10-23T16:16:25.261Z,2.40
2022-10-23T16:18:51.617Z,2.70
2022-10-23T16:21:19.460Z,2.65
2022-10-23T16:23:45.888Z,3.28
2022-10-23T16:26:12.533Z,2.50
2022-10-23T16:28:38.902Z,2.88
2022-10-23T16:31:08.818Z,4.28
2022-10-23T16:33:35.226Z,7.45
2022-10-23T16:36:02.536Z,3.75
2022-10-23T16:38:28.963Z,5.78
2022-10-23T16:40:55.342Z,2.80
2022-10-23T16:43:38.277Z,2.65
2022-10-23T16:46:14.561Z,4.20
2022-10-23T16:48:41.261Z,5.50
2022-10-23T16:51:09.012Z,5.43
2022-10-23T16:53:35.830Z,4.47
2022-10-23T16:56:06.326Z,3.83
2022-10-23T16:58:33.197Z,3.80
2022-10-23T17:01:01.619Z,5.00
2022-10-23T17:03:28.923Z,3.35
2022-10-23T17:06:02.357Z,4.00
2022-10-23T17:08:30.103Z,5.70
2022-10-23T17:11:16.432Z,9.07
2022-10-23T17:13:44.737Z,7.82
2022-10-23T17:16:11.039Z,10.63
2022-10-23T17:18:42.876Z,9.13
2022-10-23T17:21:10.645Z,7.32
2022-10-23T17:23:37.009Z,6.55
2022-10-23T17:26:06.203Z,6.65
2022-10-23T17:28:34.052Z,4.43
2022-10-23T17:31:00.392Z,4.90
2022-10-23T17:33:26.745Z,4.45
2022-10-23T17:35:53.093Z,6.20
2022-10-23T17:38:19.513Z,6.00
2022-10-23T17:40:46.690Z,5.00
2022-10-23T17:43:16.231Z,4.82
2022-10-23T17:45:44.917Z,5.53
2022-10-23T17:48:14.548Z,4.05
2022-10-23T17:50:41.075Z,3.38
2022-10-23T17:53:07.944Z,3.42
2022-10-23T17:55:41.069Z,3.92
2022-10-23T17:58:08.086Z,3.42
2022-10-23T18:00:35.676Z,4.00
2022-10-23T18:03:02.345Z,3.15
2022-10-23T18:05:28.777Z,4.25
2022-10-23T18:07:55.317Z,3.97
2022-10-23T18:10:21.651Z,4.95
2022-10-23T18:12:47.974Z,3.95
2022-10-23T18:15:14.336Z,5.45
2022-10-23T18:17:40.854Z,4.50
2022-10-23T18:20:07.721Z,3.85
2022-10-23T18:22:34.294Z,4.07
2022-10-23T18:25:00.724Z,3.67
2022-10-23T18:27:27.085Z,3.33
2022-10-23T18:29:53.980Z,5.05
2022-10-23T18:32:20.676Z,3.58
2022-10-23T18:34:47.387Z,3.60
2022-10-23T18:37:13.735Z,4.05
2022-10-23T18:39:40.061Z,4.22
2022-10-23T18:42:06.502Z,3.38
2022-10-23T18:44:32.881Z,3.90
2022-10-23T18:46:59.340Z,3.35
2022-10-23T18:49:26.174Z,3.78
2022-10-23T18:51:52.625Z,3.83
2022-10-23T18:54:19.888Z,3.45
2022-10-23T18:56:46.396Z,3.78
2022-10-23T18:59:14.142Z,3.67
2022-10-23T19:01:40.691Z,3.22
2022-10-23T19:04:07.372Z,3.72
2022-10-23T19:06:35.183Z,3.35
2022-10-23T19:09:01.768Z,3.33
2022-10-23T19:11:28.799Z,3.05
2022-10-23T19:13:55.314Z,4.22
2022-10-23T19:16:33.410Z,3.85
2022-10-23T19:19:26.119Z,3.42
2022-10-23T19:21:54.083Z,3.08
2022-10-23T19:24:22.158Z,2.97
2022-10-23T19:26:48.593Z,2.88
2022-10-23T19:29:18.144Z,2.25
2022-10-23T19:31:48.935Z,2.90
2022-10-23T19:34:19.655Z,2.80
2022-10-23T19:36:46.887Z,3.45
2022-10-23T19:39:13.230Z,3.25
2022-10-23T19:41:39.669Z,3.50
2022-10-23T19:44:06.125Z,2.63
2022-10-23T19:46:34.599Z,2.72
2022-10-23T19:49:01.017Z,2.70
2022-10-23T19:51:29.581Z,3.33
2022-10-23T19:53:56.506Z,2.80
2022-10-23T19:56:22.903Z,2.80
2022-10-23T19:58:49.543Z,2.70
2022-10-23T20:01:17.596Z,2.10
2022-10-23T20:03:45.496Z,2.72
2022-10-23T20:06:12.934Z,2.00
2022-10-23T20:08:39.777Z,1.67
2022-10-23T20:11:06.625Z,2.45
2022-10-23T20:13:33.985Z,1.83
2022-10-23T20:16:00.478Z,1.90
2022-10-23T20:18:27.073Z,2.05
2022-10-23T20:20:53.565Z,2.17
2022-10-23T20:23:19.905Z,2.08
2022-10-23T20:25:46.325Z,2.88
2022-10-23T20:28:14.391Z,2.80
2022-10-23T20:30:42.447Z,2.28
2022-10-23T20:33:08.873Z,3.13
2022-10-23T20:35:39.713Z,2.33
2022-10-23T20:38:06.199Z,1.80
2022-10-23T20:40:33.593Z,2.15
2022-10-23T20:43:00.074Z,2.28
2022-10-23T20:45:26.502Z,2.30
2022-10-23T20:47:52.912Z,1.45
2022-10-23T20:50:19.434Z,1.52
2022-10-23T20:52:45.766Z,1.02
2022-10-23T20:55:12.175Z,2.05
2022-10-23T20:57:38.530Z,1.05
2022-10-23T21:00:05.571Z,1.60
2022-10-23T21:02:33.064Z,1.55
2022-10-23T21:04:59.484Z,1.85
2022-10-23T21:07:26.910Z,1.45
2022-10-23T21:09:53.297Z,1.60
2022-10-23T21:12:19.674Z,2.00
2022-10-23T21:14:46.024Z,1.52
2022-10-23T21:17:16.689Z,1.90
2022-10-23T21:19:43.085Z,2.80
2022-10-23T21:22:09.402Z,2.05
2022-10-23T21:24:35.751Z,1.52
2022-10-23T21:27:02.211Z,1.70
2022-10-23T21:29:28.596Z,1.52
2022-10-23T21:31:55.948Z,1.73
2022-10-23T21:34:23.137Z,1.33
2022-10-23T21:39:35.950Z,1.60
2022-10-23T21:42:02.280Z,1.30
2022-10-23T21:44:28.635Z,1.90
2022-10-23T21:46:55.260Z,1.77
2022-10-23T21:49:21.659Z,1.80
2022-10-23T21:51:48.006Z,1.85
2022-10-23T21:54:17.500Z,2.10
2022-10-23T21:56:46.166Z,1.48
2022-10-23T21:59:13.839Z,1.80
2022-10-23T22:01:41.648Z,2.80
2022-10-23T22:04:08.186Z,2.08
2022-10-23T22:06:34.598Z,2.47
2022-10-23T22:09:01.005Z,2.17
2022-10-23T22:11:27.872Z,2.30
2022-10-23T22:13:54.814Z,2.08
2022-10-23T22:16:21.256Z,2.22
2022-10-23T22:18:47.767Z,2.35
2022-10-23T22:21:19.806Z,2.35
2022-10-23T22:23:49.102Z,2.63
2022-10-23T22:26:24.082Z,2.45
2022-10-23T22:28:51.994Z,2.45
2022-10-23T22:31:19.900Z,2.63
2022-10-23T22:33:47.766Z,2.45
2022-10-23T22:36:14.412Z,3.00
2022-10-23T22:38:41.517Z,3.22
2022-10-23T22:41:08.280Z,2.97
2022-10-23T22:43:34.651Z,3.20
2022-10-23T22:46:06.907Z,2.70
2022-10-23T22:48:33.701Z,2.65
2022-10-23T22:51:00.706Z,3.10
2022-10-23T22:53:27.434Z,3.60
2022-10-23T22:55:54.401Z,3.45
2022-10-23T22:58:21.192Z,3.20
2022-10-23T23:00:47.903Z,3.47
2022-10-23T23:03:14.439Z,3.05
2022-10-23T23:08:14.514Z,3.20
2022-10-23T23:10:41.255Z,2.58
2022-10-23T23:13:07.806Z,2.72
2022-10-23T23:15:38.537Z,2.90
2022-10-23T23:18:04.906Z,2.80
2022-10-23T23:20:31.317Z,2.33
2022-10-23T23:22:57.633Z,2.97
2022-10-23T23:25:24.273Z,2.92
2022-10-23T23:27:50.641Z,3.05
2022-10-23T23:30:17.046Z,2.42
2022-10-23T23:32:43.697Z,3.03
2022-10-23T23:35:10.390Z,2.75
2022-10-23T23:37:36.746Z,2.70
2022-10-23T23:40:03.616Z,3.05
2022-10-23T23:42:30.574Z,3.65
2022-10-23T23:45:02.748Z,3.03
2022-10-23T23:47:36.653Z,3.03
2022-10-23T23:50:03.727Z,3.53
2022-10-23T23:52:30.220Z,3.33
2022-10-23T23:54:56.638Z,2.47
2022-10-23T23:57:23.065Z,2.95
2022-10-23T23:59:49.482Z,2.78
